sensor_id;sensor_type;location;lat;lon;timestamp;P1;durP1;ratioP1;P2;durP2;ratioP2
9418;SDS011;4748;50.802;7.132;2022-08-01T03:32:04;2.90;;;0.98;;
9418;SDS011;4748;50.802;7.132;2022-08-01T03:34:31;0.80;;;0.80;;
9418;SDS011;4748;50.802;7.132;2022-08-01T03:37:02;0.75;;;0.75;;
9418;SDS011;4748;50.802;7.132;2022-08-01T03:39:44;0.95;;;0.77;;
9418;SDS011;4748;50.802;7.132;2022-08-01T03:42:16;3.08;;;0.93;;
9418;SDS011;4748;50.802;7.132;2022-08-01T03:44:46;3.83;;;0.60;;
9418;SDS011;4748;50.802;7.132;2022-08-01T03:47:22;0.82;;;0.70;;
9418;SDS011;4748;50.802;7.132;2022-08-01T03:49:52;2.67;;;0.70;;
9418;SDS011;4748;50.802;7.132;2022-08-01T03:52:19;1.25;;;0.88;;
9418;SDS011;4748;50.802;7.132;2022-08-01T03:54:47;0.70;;;0.70;;
9418;SDS011;4748;50.802;7.132;2022-08-01T03:57:16;1.10;;;1.08;;
9418;SDS011;4748;50.802;7.132;2022-08-01T03:59:43;2.97;;;0.95;;
9418;SDS011;4748;50.802;7.132;2022-08-01T04:02:08;1.60;;;0.90;;
9418;SDS011;4748;50.802;7.132;2022-08-01T04:04:34;4.32;;;1.20;;
9418;SDS011;4748;50.802;7.132;2022-08-01T04:07:00;2.35;;;1.05;;
9418;SDS011;4748;50.802;7.132;2022-08-01T04:09:31;1.60;;;1.40;;
9418;SDS011;4748;50.802;7.132;2022-08-01T04:11:58;1.77;;;1.42;;
9418;SDS011;4748;50.802;7.132;2022-08-01T04:14:24;1.17;;;1.17;;
9418;SDS011;4748;50.802;7.132;2022-08-01T04:16:49;1.17;;;1.00;;
9418;SDS011;4748;50.802;7.132;2022-08-01T04:19:15;1.10;;;1.10;;
9418;SDS011;4748;50.802;7.132;2022-08-01T04:21:40;1.02;;;1.02;;
9418;SDS011;4748;50.802;7.132;2022-08-01T04:24:07;4.82;;;0.70;;
9418;SDS011;4748;50.802;7.132;2022-08-01T04:26:38;3.08;;;0.70;;
9418;SDS011;4748;50.802;7.132;2022-08-01T04:29:05;0.80;;;0.80;;
9418;SDS011;4748;50.802;7.132;2022-08-01T04:31:33;1.05;;;1.02;;
9418;SDS011;4748;50.802;7.132;2022-08-01T04:34:01;1.08;;;0.90;;
9418;SDS011;4748;50.802;7.132;2022-08-01T04:36:29;1.00;;;0.90;;
9418;SDS011;4748;50.802;7.132;2022-08-01T04:39:00;0.75;;;0.73;;
9418;SDS011;4748;50.802;7.132;2022-08-01T04:41:26;4.72;;;1.10;;
9418;SDS011;4748;50.802;7.132;2022-08-01T04:43:52;2.15;;;1.52;;
9418;SDS011;4748;50.802;7.132;2022-08-01T04:46:20;3.70;;;1.20;;
9418;SDS011;4748;50.802;7.132;2022-08-01T04:48:46;0.77;;;0.75;;
9418;SDS011;4748;50.802;7.132;2022-08-01T04:51:16;4.50;;;1.67;;
9418;SDS011;4748;50.802;7.132;2022-08-01T04:53:46;1.02;;;0.82;;
9418;SDS011;4748;50.802;7.132;2022-08-01T04:56:12;0.98;;;0.98;;
9418;SDS011;4748;50.802;7.132;2022-08-01T04:58:39;3.80;;;1.20;;
9418;SDS011;4748;50.802;7.132;2022-08-01T05:01:07;1.88;;;1.10;;
9418;SDS011;4748;50.802;7.132;2022-08-01T05:03:33;1.02;;;1.02;;
9418;SDS011;4748;50.802;7.132;2022-08-01T05:05:59;1.15;;;0.90;;
9418;SDS011;4748;50.802;7.132;2022-08-01T05:08:24;2.50;;;1.17;;
9418;SDS011;4748;50.802;7.132;2022-08-01T05:10:49;2.50;;;1.23;;
9418;SDS011;4748;50.802;7.132;2022-08-01T05:13:15;1.60;;;1.50;;
9418;SDS011;4748;50.802;7.132;2022-08-01T05:15:40;5.50;;;1.70;;
9418;SDS011;4748;50.802;7.132;2022-08-01T05:18:06;12.40;;;2.45;;
9418;SDS011;4748;50.802;7.132;2022-08-01T05:20:31;4.85;;;2.47;;
9418;SDS011;4748;50.802;7.132;2022-08-01T05:22:57;2.88;;;1.95;;
9418;SDS011;4748;50.802;7.132;2022-08-01T05:25:22;3.58;;;2.53;;
9418;SDS011;4748;50.802;7.132;2022-08-01T05:27:48;3.58;;;3.28;;
9418;SDS011;4748;50.802;7.132;2022-08-01T05:30:14;6.55;;;2.55;;
9418;SDS011;4748;50.802;7.132;2022-08-01T05:32:39;4.68;;;2.60;;
9418;SDS011;4748;50.802;7.132;2022-08-01T05:35:06;2.35;;;2.20;;
9418;SDS011;4748;50.802;7.132;2022-08-01T05:37:32;5.90;;;2.78;;
9418;SDS011;4748;50.802;7.132;2022-08-01T05:39:57;4.22;;;2.25;;
9418;SDS011;4748;50.802;7.132;2022-08-01T05:42:23;2.80;;;2.55;;
9418;SDS011;4748;50.802;7.132;2022-08-01T05:44:48;2.78;;;2.42;;
9418;SDS011;4748;50.802;7.132;2022-08-01T05:47:15;3.22;;;2.78;;
9418;SDS011;4748;50.802;7.132;2022-08-01T05:49:40;2.83;;;2.00;;
9418;SDS011;4748;50.802;7.132;2022-08-01T05:52:05;6.05;;;2.20;;
9418;SDS011;4748;50.802;7.132;2022-08-01T05:54:31;3.60;;;2.88;;
9418;SDS011;4748;50.802;7.132;2022-08-01T05:56:56;7.05;;;2.65;;
9418;SDS011;4748;50.802;7.132;2022-08-01T05:59:24;6.07;;;2.78;;
9418;SDS011;4748;50.802;7.132;2022-08-01T06:01:50;5.47;;;2.45;;
9418;SDS011;4748;50.802;7.132;2022-08-01T06:04:16;8.82;;;2.58;;
9418;SDS011;4748;50.802;7.132;2022-08-01T06:06:41;3.03;;;2.63;;
9418;SDS011;4748;50.802;7.132;2022-08-01T06:09:06;4.53;;;3.30;;
9418;SDS011;4748;50.802;7.132;2022-08-01T06:11:32;6.70;;;3.85;;
9418;SDS011;4748;50.802;7.132;2022-08-01T06:13:57;2.83;;;2.63;;
9418;SDS011;4748;50.802;7.132;2022-08-01T06:16:22;4.30;;;2.75;;
9418;SDS011;4748;50.802;7.132;2022-08-01T06:18:48;2.70;;;2.42;;
9418;SDS011;4748;50.802;7.132;2022-08-01T06:21:13;8.30;;;2.92;;
9418;SDS011;4748;50.802;7.132;2022-08-01T06:23:39;3.35;;;3.05;;
9418;SDS011;4748;50.802;7.132;2022-08-01T06:26:06;4.55;;;2.58;;
9418;SDS011;4748;50.802;7.132;2022-08-01T06:28:31;2.85;;;2.63;;
9418;SDS011;4748;50.802;7.132;2022-08-01T06:30:57;2.55;;;2.33;;
9418;SDS011;4748;50.802;7.132;2022-08-01T06:33:24;3.15;;;2.85;;
9418;SDS011;4748;50.802;7.132;2022-08-01T06:35:49;3.20;;;2.33;;
9418;SDS011;4748;50.802;7.132;2022-08-01T06:38:14;4.15;;;2.85;;
9418;SDS011;4748;50.802;7.132;2022-08-01T06:40:40;5.68;;;3.80;;
9418;SDS011;4748;50.802;7.132;2022-08-01T06:43:05;8.25;;;3.75;;
9418;SDS011;4748;50.802;7.132;2022-08-01T06:45:31;3.58;;;3.25;;
9418;SDS011;4748;50.802;7.132;2022-08-01T06:47:56;4.72;;;3.28;;
9418;SDS011;4748;50.802;7.132;2022-08-01T06:50:21;6.20;;;2.85;;
9418;SDS011;4748;50.802;7.132;2022-08-01T06:52:47;3.15;;;2.88;;
9418;SDS011;4748;50.802;7.132;2022-08-01T06:55:12;8.98;;;3.22;;
9418;SDS011;4748;50.802;7.132;2022-08-01T06:57:48;9.77;;;3.33;;
9418;SDS011;4748;50.802;7.132;2022-08-01T07:00:15;5.10;;;3.75;;
9418;SDS011;4748;50.802;7.132;2022-08-01T07:02:43;8.70;;;3.40;;
9418;SDS011;4748;50.802;7.132;2022-08-01T07:05:09;3.72;;;3.42;;
9418;SDS011;4748;50.802;7.132;2022-08-01T07:07:35;3.53;;;3.22;;
9418;SDS011;4748;50.802;7.132;2022-08-01T07:10:00;9.43;;;3.35;;
9418;SDS011;4748;50.802;7.132;2022-08-01T07:12:25;3.40;;;3.10;;
9418;SDS011;4748;50.802;7.132;2022-08-01T07:14:51;6.28;;;3.05;;
9418;SDS011;4748;50.802;7.132;2022-08-01T07:17:16;3.80;;;2.55;;
9418;SDS011;4748;50.802;7.132;2022-08-01T07:19:42;6.60;;;2.55;;
9418;SDS011;4748;50.802;7.132;2022-08-01T07:22:07;2.47;;;2.28;;
9418;SDS011;4748;50.802;7.132;2022-08-01T07:24:32;2.70;;;2.50;;
9418;SDS011;4748;50.802;7.132;2022-08-01T07:26:58;2.38;;;2.17;;
9418;SDS011;4748;50.802;7.132;2022-08-01T07:29:23;5.45;;;2.08;;
9418;SDS011;4748;50.802;7.132;2022-08-01T07:31:50;4.53;;;2.35;;
9418;SDS011;4748;50.802;7.132;2022-08-01T07:34:17;3.22;;;2.38;;
9418;SDS011;4748;50.802;7.132;2022-08-01T07:36:43;3.53;;;2.85;;
9418;SDS011;4748;50.802;7.132;2022-08-01T07:39:08;1.88;;;1.75;;
9418;SDS011;4748;50.802;7.132;2022-08-01T07:41:34;4.47;;;3.00;;
9418;SDS011;4748;50.802;7.132;2022-08-01T07:43:59;4.38;;;2.55;;
9418;SDS011;4748;50.802;7.132;2022-08-01T07:46:24;9.68;;;2.67;;
9418;SDS011;4748;50.802;7.132;2022-08-01T07:48:50;2.40;;;2.20;;
9418;SDS011;4748;50.802;7.132;2022-08-01T07:51:15;3.55;;;2.15;;
9418;SDS011;4748;50.802;7.132;2022-08-01T07:53:40;2.80;;;2.47;;
9418;SDS011;4748;50.802;7.132;2022-08-01T07:56:06;8.00;;;2.55;;
9418;SDS011;4748;50.802;7.132;2022-08-01T07:58:32;2.65;;;2.45;;
9418;SDS011;4748;50.802;7.132;2022-08-01T08:00:58;4.18;;;2.38;;
9418;SDS011;4748;50.802;7.132;2022-08-01T08:03:23;8.57;;;2.30;;
9418;SDS011;4748;50.802;7.132;2022-08-01T08:05:48;4.50;;;2.45;;
9418;SDS011;4748;50.802;7.132;2022-08-01T08:08:14;3.75;;;3.22;;
9418;SDS011;4748;50.802;7.132;2022-08-01T08:10:40;2.40;;;2.20;;
9418;SDS011;4748;50.802;7.132;2022-08-01T08:13:06;3.15;;;2.95;;
9418;SDS011;4748;50.802;7.132;2022-08-01T08:15:31;2.53;;;2.38;;
9418;SDS011;4748;50.802;7.132;2022-08-01T08:17:57;3.53;;;3.15;;
9418;SDS011;4748;50.802;7.132;2022-08-01T08:20:22;4.25;;;2.90;;
9418;SDS011;4748;50.802;7.132;2022-08-01T08:22:50;2.70;;;2.58;;
9418;SDS011;4748;50.802;7.132;2022-08-01T08:25:16;3.33;;;3.05;;
9418;SDS011;4748;50.802;7.132;2022-08-01T08:27:41;9.50;;;2.70;;
9418;SDS011;4748;50.802;7.132;2022-08-01T08:30:07;3.25;;;2.92;;
9418;SDS011;4748;50.802;7.132;2022-08-01T08:32:33;3.10;;;2.85;;
9418;SDS011;4748;50.802;7.132;2022-08-01T08:34:59;3.28;;;2.92;;
9418;SDS011;4748;50.802;7.132;2022-08-01T08:37:25;4.70;;;3.08;;
9418;SDS011;4748;50.802;7.132;2022-08-01T08:39:50;3.15;;;2.95;;
9418;SDS011;4748;50.802;7.132;2022-08-01T08:42:15;3.88;;;3.03;;
9418;SDS011;4748;50.802;7.132;2022-08-01T08:44:41;4.20;;;3.28;;
9418;SDS011;4748;50.802;7.132;2022-08-01T08:47:07;3.88;;;3.15;;
9418;SDS011;4748;50.802;7.132;2022-08-01T08:49:35;4.05;;;3.33;;
9418;SDS011;4748;50.802;7.132;2022-08-01T08:52:02;2.83;;;2.50;;
9418;SDS011;4748;50.802;7.132;2022-08-01T08:54:29;3.22;;;3.03;;
9418;SDS011;4748;50.802;7.132;2022-08-01T08:56:55;5.85;;;3.20;;
9418;SDS011;4748;50.802;7.132;2022-08-01T08:59:22;3.55;;;3.05;;
9418;SDS011;4748;50.802;7.132;2022-08-01T09:01:51;6.32;;;3.05;;
9418;SDS011;4748;50.802;7.132;2022-08-01T09:04:16;3.00;;;2.80;;
9418;SDS011;4748;50.802;7.132;2022-08-01T09:06:42;3.30;;;3.17;;
9418;SDS011;4748;50.802;7.132;2022-08-01T09:09:08;3.40;;;3.20;;
9418;SDS011;4748;50.802;7.132;2022-08-01T09:11:34;3.78;;;3.15;;
9418;SDS011;4748;50.802;7.132;2022-08-01T09:16:28;6.10;;;3.38;;
9418;SDS011;4748;50.802;7.132;2022-08-01T09:18:54;3.65;;;3.35;;
9418;SDS011;4748;50.802;7.132;2022-08-01T09:21:32;7.70;;;3.95;;
9418;SDS011;4748;50.802;7.132;2022-08-01T09:23:57;4.80;;;4.50;;
9418;SDS011;4748;50.802;7.132;2022-08-01T09:26:28;6.18;;;3.42;;
9418;SDS011;4748;50.802;7.132;2022-08-01T09:28:56;3.97;;;3.60;;
9418;SDS011;4748;50.802;7.132;2022-08-01T09:31:23;3.35;;;3.08;;
9418;SDS011;4748;50.802;7.132;2022-08-01T09:36:20;3.08;;;2.95;;
9418;SDS011;4748;50.802;7.132;2022-08-01T09:38:47;5.75;;;3.40;;
9418;SDS011;4748;50.802;7.132;2022-08-01T09:41:13;3.38;;;3.10;;
9418;SDS011;4748;50.802;7.132;2022-08-01T09:43:38;2.60;;;2.50;;
9418;SDS011;4748;50.802;7.132;2022-08-01T09:46:04;2.45;;;2.35;;
9418;SDS011;4748;50.802;7.132;2022-08-01T09:48:54;3.63;;;2.90;;
9418;SDS011;4748;50.802;7.132;2022-08-01T09:51:54;5.20;;;2.83;;
9418;SDS011;4748;50.802;7.132;2022-08-01T09:54:12;3.38;;;2.60;;
9418;SDS011;4748;50.802;7.132;2022-08-01T09:56:52;2.40;;;2.30;;
9418;SDS011;4748;50.802;7.132;2022-08-01T09:59:17;2.50;;;2.40;;
9418;SDS011;4748;50.802;7.132;2022-08-01T10:04:13;4.18;;;2.30;;
9418;SDS011;4748;50.802;7.132;2022-08-01T10:06:42;3.67;;;2.45;;
9418;SDS011;4748;50.802;7.132;2022-08-01T10:09:10;2.13;;;1.95;;
9418;SDS011;4748;50.802;7.132;2022-08-01T10:11:36;2.65;;;2.40;;
9418;SDS011;4748;50.802;7.132;2022-08-01T10:14:04;2.13;;;1.60;;
9418;SDS011;4748;50.802;7.132;2022-08-01T10:16:30;2.30;;;2.20;;
9418;SDS011;4748;50.802;7.132;2022-08-01T10:18:58;2.03;;;1.92;;
9418;SDS011;4748;50.802;7.132;2022-08-01T10:21:25;2.33;;;2.10;;
9418;SDS011;4748;50.802;7.132;2022-08-01T10:23:52;2.97;;;2.42;;
9418;SDS011;4748;50.802;7.132;2022-08-01T10:26:19;1.95;;;1.80;;
9418;SDS011;4748;50.802;7.132;2022-08-01T10:28:45;2.25;;;1.40;;
9418;SDS011;4748;50.802;7.132;2022-08-01T10:31:13;1.65;;;1.55;;
9418;SDS011;4748;50.802;7.132;2022-08-01T10:33:39;5.55;;;2.25;;
9418;SDS011;4748;50.802;7.132;2022-08-01T10:36:06;2.00;;;1.90;;
9418;SDS011;4748;50.802;7.132;2022-08-01T10:38:32;1.90;;;1.20;;
9418;SDS011;4748;50.802;7.132;2022-08-01T10:40:58;1.83;;;1.67;;
9418;SDS011;4748;50.802;7.132;2022-08-01T10:43:26;3.75;;;2.05;;
9418;SDS011;4748;50.802;7.132;2022-08-01T10:45:52;1.83;;;1.73;;
9418;SDS011;4748;50.802;7.132;2022-08-01T10:48:24;1.55;;;1.55;;
9418;SDS011;4748;50.802;7.132;2022-08-01T10:50:55;1.50;;;1.50;;
9418;SDS011;4748;50.802;7.132;2022-08-01T10:53:25;1.70;;;1.60;;
9418;SDS011;4748;50.802;7.132;2022-08-01T10:58:27;1.77;;;1.67;;
9418;SDS011;4748;50.802;7.132;2022-08-01T11:06:35;7.82;;;1.85;;
9418;SDS011;4748;50.802;7.132;2022-08-01T11:15:15;1.17;;;1.17;;
9418;SDS011;4748;50.802;7.132;2022-08-01T11:17:38;1.63;;;1.63;;
9418;SDS011;4748;50.802;7.132;2022-08-01T11:20:24;2.15;;;1.52;;
9418;SDS011;4748;50.802;7.132;2022-08-01T11:25:22;1.48;;;1.38;;
9418;SDS011;4748;50.802;7.132;2022-08-01T11:27:48;1.10;;;1.10;;
9418;SDS011;4748;50.802;7.132;2022-08-01T11:30:34;1.27;;;1.27;;
9418;SDS011;4748;50.802;7.132;2022-08-01T11:32:59;1.17;;;1.08;;
9418;SDS011;4748;50.802;7.132;2022-08-01T11:35:24;1.55;;;1.55;;
9418;SDS011;4748;50.802;7.132;2022-08-01T11:37:52;1.52;;;1.42;;
9418;SDS011;4748;50.802;7.132;2022-08-01T11:42:46;1.73;;;1.73;;
9418;SDS011;4748;50.802;7.132;2022-08-01T11:45:13;3.70;;;1.80;;
9418;SDS011;4748;50.802;7.132;2022-08-01T11:47:46;4.20;;;2.00;;
9418;SDS011;4748;50.802;7.132;2022-08-01T11:50:30;2.13;;;2.03;;
9418;SDS011;4748;50.802;7.132;2022-08-01T11:53:04;1.65;;;1.55;;
9418;SDS011;4748;50.802;7.132;2022-08-01T11:55:31;6.32;;;1.60;;
9418;SDS011;4748;50.802;7.132;2022-08-01T11:58:00;1.67;;;1.35;;
9418;SDS011;4748;50.802;7.132;2022-08-01T12:00:27;1.70;;;1.60;;
9418;SDS011;4748;50.802;7.132;2022-08-01T12:02:57;3.40;;;1.40;;
9418;SDS011;4748;50.802;7.132;2022-08-01T12:05:25;1.67;;;1.58;;
9418;SDS011;4748;50.802;7.132;2022-08-01T12:07:51;1.98;;;1.88;;
9418;SDS011;4748;50.802;7.132;2022-08-01T12:10:18;2.03;;;1.27;;
9418;SDS011;4748;50.802;7.132;2022-08-01T12:12:46;2.20;;;1.85;;
9418;SDS011;4748;50.802;7.132;2022-08-01T12:15:16;2.00;;;1.60;;
9418;SDS011;4748;50.802;7.132;2022-08-01T12:17:46;1.17;;;1.17;;
9418;SDS011;4748;50.802;7.132;2022-08-01T12:20:14;2.05;;;1.67;;
9418;SDS011;4748;50.802;7.132;2022-08-01T12:22:41;1.60;;;1.60;;
9418;SDS011;4748;50.802;7.132;2022-08-01T12:25:09;1.23;;;1.23;;
9418;SDS011;4748;50.802;7.132;2022-08-01T12:27:40;1.45;;;1.35;;
9418;SDS011;4748;50.802;7.132;2022-08-01T12:30:10;4.72;;;1.90;;
9418;SDS011;4748;50.802;7.132;2022-08-01T12:32:38;1.73;;;1.63;;
9418;SDS011;4748;50.802;7.132;2022-08-01T12:35:08;1.15;;;1.15;;
9418;SDS011;4748;50.802;7.132;2022-08-01T12:37:43;10.63;;;1.33;;
9418;SDS011;4748;50.802;7.132;2022-08-01T12:40:10;0.75;;;0.75;;
9418;SDS011;4748;50.802;7.132;2022-08-01T12:42:37;1.00;;;1.00;;
9418;SDS011;4748;50.802;7.132;2022-08-01T12:45:05;1.15;;;1.15;;
9418;SDS011;4748;50.802;7.132;2022-08-01T12:47:38;1.30;;;1.17;;
9418;SDS011;4748;50.802;7.132;2022-08-01T12:50:08;4.68;;;1.50;;
9418;SDS011;4748;50.802;7.132;2022-08-01T12:52:37;1.08;;;1.08;;
9418;SDS011;4748;50.802;7.132;2022-08-01T12:57:35;4.78;;;1.70;;
9418;SDS011;4748;50.802;7.132;2022-08-01T13:00:13;1.15;;;1.15;;
9418;SDS011;4748;50.802;7.132;2022-08-01T13:02:42;1.00;;;1.00;;
9418;SDS011;4748;50.802;7.132;2022-08-01T13:05:09;0.73;;;0.73;;
9418;SDS011;4748;50.802;7.132;2022-08-01T13:10:04;0.80;;;0.80;;
9418;SDS011;4748;50.802;7.132;2022-08-01T13:12:30;0.95;;;0.95;;
9418;SDS011;4748;50.802;7.132;2022-08-01T13:14:55;6.07;;;1.20;;
9418;SDS011;4748;50.802;7.132;2022-08-01T13:17:33;3.17;;;0.82;;
9418;SDS011;4748;50.802;7.132;2022-08-01T13:20:04;1.00;;;1.00;;
9418;SDS011;4748;50.802;7.132;2022-08-01T13:22:34;1.27;;;0.82;;
9418;SDS011;4748;50.802;7.132;2022-08-01T13:25:13;6.20;;;1.50;;
9418;SDS011;4748;50.802;7.132;2022-08-01T13:27:40;1.50;;;1.40;;
9418;SDS011;4748;50.802;7.132;2022-08-01T13:30:12;1.35;;;1.02;;
9418;SDS011;4748;50.802;7.132;2022-08-01T13:32:42;2.00;;;1.33;;
9418;SDS011;4748;50.802;7.132;2022-08-01T13:35:10;2.22;;;1.20;;
9418;SDS011;4748;50.802;7.132;2022-08-01T13:37:37;1.10;;;1.10;;
9418;SDS011;4748;50.802;7.132;2022-08-01T13:40:05;2.03;;;1.38;;
9418;SDS011;4748;50.802;7.132;2022-08-01T13:42:32;1.10;;;1.10;;
9418;SDS011;4748;50.802;7.132;2022-08-01T13:44:57;1.38;;;1.27;;
9418;SDS011;4748;50.802;7.132;2022-08-01T13:47:23;1.33;;;1.20;;
9418;SDS011;4748;50.802;7.132;2022-08-01T13:49:48;3.75;;;1.20;;
9418;SDS011;4748;50.802;7.132;2022-08-01T13:52:13;1.85;;;1.20;;
9418;SDS011;4748;50.802;7.132;2022-08-01T13:54:39;1.15;;;1.10;;
9418;SDS011;4748;50.802;7.132;2022-08-01T13:57:04;1.50;;;1.40;;
9418;SDS011;4748;50.802;7.132;2022-08-01T13:59:30;1.55;;;1.45;;
9418;SDS011;4748;50.802;7.132;2022-08-01T14:01:55;4.57;;;1.20;;
9418;SDS011;4748;50.802;7.132;2022-08-01T14:04:20;2.35;;;1.23;;
9418;SDS011;4748;50.802;7.132;2022-08-01T14:06:46;1.77;;;1.58;;
9418;SDS011;4748;50.802;7.132;2022-08-01T14:09:12;1.85;;;1.85;;
9418;SDS011;4748;50.802;7.132;2022-08-01T14:11:37;0.98;;;0.90;;
9418;SDS011;4748;50.802;7.132;2022-08-01T14:14:03;1.08;;;1.08;;
9418;SDS011;4748;50.802;7.132;2022-08-01T14:16:28;1.05;;;0.88;;
9418;SDS011;4748;50.802;7.132;2022-08-01T14:18:54;0.88;;;0.88;;
9418;SDS011;4748;50.802;7.132;2022-08-01T14:21:19;5.18;;;0.90;;
9418;SDS011;4748;50.802;7.132;2022-08-01T14:23:45;2.40;;;0.70;;
9418;SDS011;4748;50.802;7.132;2022-08-01T14:26:10;0.77;;;0.77;;
9418;SDS011;4748;50.802;7.132;2022-08-01T14:28:36;2.58;;;1.00;;
9418;SDS011;4748;50.802;7.132;2022-08-01T14:31:02;0.63;;;0.63;;
9418;SDS011;4748;50.802;7.132;2022-08-01T14:33:28;0.82;;;0.82;;
9418;SDS011;4748;50.802;7.132;2022-08-01T14:35:54;1.23;;;0.85;;
9418;SDS011;4748;50.802;7.132;2022-08-01T14:38:20;1.20;;;0.80;;
9418;SDS011;4748;50.802;7.132;2022-08-01T14:40:45;0.80;;;0.57;;
9418;SDS011;4748;50.802;7.132;2022-08-01T14:43:12;4.28;;;0.80;;
9418;SDS011;4748;50.802;7.132;2022-08-01T14:45:38;0.70;;;0.70;;
9418;SDS011;4748;50.802;7.132;2022-08-01T14:48:04;1.77;;;0.50;;
9418;SDS011;4748;50.802;7.132;2022-08-01T14:50:29;0.60;;;0.60;;
9418;SDS011;4748;50.802;7.132;2022-08-01T14:52:55;0.70;;;0.70;;
9418;SDS011;4748;50.802;7.132;2022-08-01T14:55:21;1.55;;;0.73;;
9418;SDS011;4748;50.802;7.132;2022-08-01T14:57:50;0.80;;;0.77;;
9418;SDS011;4748;50.802;7.132;2022-08-01T15:00:15;1.95;;;0.60;;
9418;SDS011;4748;50.802;7.132;2022-08-01T15:02:41;0.47;;;0.47;;
9418;SDS011;4748;50.802;7.132;2022-08-01T15:05:07;0.47;;;0.47;;
9418;SDS011;4748;50.802;7.132;2022-08-01T15:07:33;1.63;;;0.70;;
9418;SDS011;4748;50.802;7.132;2022-08-01T15:09:59;3.30;;;0.50;;
9418;SDS011;4748;50.802;7.132;2022-08-01T15:12:25;1.02;;;0.80;;
9418;SDS011;4748;50.802;7.132;2022-08-01T15:14:50;0.85;;;0.75;;
9418;SDS011;4748;50.802;7.132;2022-08-01T15:17:20;0.60;;;0.60;;
9418;SDS011;4748;50.802;7.132;2022-08-01T15:19:48;0.40;;;0.40;;
9418;SDS011;4748;50.802;7.132;2022-08-01T15:22:15;1.50;;;0.80;;
9418;SDS011;4748;50.802;7.132;2022-08-01T15:24:41;0.43;;;0.43;;
9418;SDS011;4748;50.802;7.132;2022-08-01T15:27:07;0.45;;;0.43;;
9418;SDS011;4748;50.802;7.132;2022-08-01T15:29:33;0.52;;;0.52;;
9418;SDS011;4748;50.802;7.132;2022-08-01T15:31:59;0.35;;;0.35;;
9418;SDS011;4748;50.802;7.132;2022-08-01T15:34:25;0.68;;;0.68;;
9418;SDS011;4748;50.802;7.132;2022-08-01T15:36:51;0.50;;;0.50;;
9418;SDS011;4748;50.802;7.132;2022-08-01T15:39:16;0.85;;;0.40;;
9418;SDS011;4748;50.802;7.132;2022-08-01T15:41:42;0.40;;;0.40;;
9418;SDS011;4748;50.802;7.132;2022-08-01T15:44:07;2.13;;;0.47;;
9418;SDS011;4748;50.802;7.132;2022-08-01T15:46:33;0.43;;;0.43;;
9418;SDS011;4748;50.802;7.132;2022-08-01T15:49:02;0.47;;;0.47;;
9418;SDS011;4748;50.802;7.132;2022-08-01T15:51:29;2.55;;;0.50;;
9418;SDS011;4748;50.802;7.132;2022-08-01T15:53:55;0.40;;;0.40;;
9418;SDS011;4748;50.802;7.132;2022-08-01T15:56:20;1.30;;;0.40;;
9418;SDS011;4748;50.802;7.132;2022-08-01T15:58:45;0.40;;;0.40;;
9418;SDS011;4748;50.802;7.132;2022-08-01T16:01:11;0.63;;;0.50;;
9418;SDS011;4748;50.802;7.132;2022-08-01T16:03:36;2.58;;;0.50;;
9418;SDS011;4748;50.802;7.132;2022-08-01T16:06:01;0.40;;;0.40;;
9418;SDS011;4748;50.802;7.132;2022-08-01T16:08:27;1.45;;;0.52;;
9418;SDS011;4748;50.802;7.132;2022-08-01T16:10:52;0.70;;;0.70;;
9418;SDS011;4748;50.802;7.132;2022-08-01T16:13:18;1.77;;;0.70;;
9418;SDS011;4748;50.802;7.132;2022-08-01T16:15:43;0.60;;;0.60;;
9418;SDS011;4748;50.802;7.132;2022-08-01T16:18:09;0.50;;;0.50;;
9418;SDS011;4748;50.802;7.132;2022-08-01T16:20:37;0.63;;;0.63;;
9418;SDS011;4748;50.802;7.132;2022-08-01T16:23:02;6.32;;;0.70;;
9418;SDS011;4748;50.802;7.132;2022-08-01T16:25:28;0.52;;;0.52;;
9418;SDS011;4748;50.802;7.132;2022-08-01T16:27:53;0.47;;;0.47;;
9418;SDS011;4748;50.802;7.132;2022-08-01T16:30:18;0.70;;;0.70;;
9418;SDS011;4748;50.802;7.132;2022-08-01T16:32:44;0.70;;;0.70;;
9418;SDS011;4748;50.802;7.132;2022-08-01T16:35:10;0.60;;;0.60;;
9418;SDS011;4748;50.802;7.132;2022-08-01T16:37:35;0.80;;;0.80;;
9418;SDS011;4748;50.802;7.132;2022-08-01T16:40:01;0.40;;;0.40;;
9418;SDS011;4748;50.802;7.132;2022-08-01T16:42:27;0.60;;;0.60;;
9418;SDS011;4748;50.802;7.132;2022-08-01T16:44:52;0.55;;;0.55;;
9418;SDS011;4748;50.802;7.132;2022-08-01T16:47:18;0.60;;;0.60;;
9418;SDS011;4748;50.802;7.132;2022-08-01T16:49:43;0.57;;;0.57;;
9418;SDS011;4748;50.802;7.132;2022-08-01T16:52:09;2.75;;;0.90;;
9418;SDS011;4748;50.802;7.132;2022-08-01T16:54:34;1.48;;;0.70;;
9418;SDS011;4748;50.802;7.132;2022-08-01T16:56:59;1.10;;;0.60;;
9418;SDS011;4748;50.802;7.132;2022-08-01T16:59:25;1.23;;;0.90;;
9418;SDS011;4748;50.802;7.132;2022-08-01T17:01:51;0.60;;;0.60;;
9418;SDS011;4748;50.802;7.132;2022-08-01T17:04:17;0.70;;;0.70;;
9418;SDS011;4748;50.802;7.132;2022-08-01T17:06:42;1.25;;;0.60;;
9418;SDS011;4748;50.802;7.132;2022-08-01T17:09:09;0.60;;;0.60;;
9418;SDS011;4748;50.802;7.132;2022-08-01T17:11:34;0.70;;;0.70;;
9418;SDS011;4748;50.802;7.132;2022-08-01T17:14:00;0.70;;;0.70;;
9418;SDS011;4748;50.802;7.132;2022-08-01T17:16:25;0.80;;;0.80;;
9418;SDS011;4748;50.802;7.132;2022-08-01T17:18:51;7.22;;;0.82;;
9418;SDS011;4748;50.802;7.132;2022-08-01T17:21:16;1.20;;;0.90;;
9418;SDS011;4748;50.802;7.132;2022-08-01T17:23:42;5.32;;;0.60;;
9418;SDS011;4748;50.802;7.132;2022-08-01T17:26:07;0.60;;;0.60;;
9418;SDS011;4748;50.802;7.132;2022-08-01T17:28:33;1.02;;;1.02;;
9418;SDS011;4748;50.802;7.132;2022-08-01T17:30:58;1.48;;;0.70;;
9418;SDS011;4748;50.802;7.132;2022-08-01T17:33:24;1.75;;;0.75;;
9418;SDS011;4748;50.802;7.132;2022-08-01T17:35:49;0.90;;;0.70;;
9418;SDS011;4748;50.802;7.132;2022-08-01T17:38:14;1.13;;;0.80;;
9418;SDS011;4748;50.802;7.132;2022-08-01T17:40:40;0.60;;;0.60;;
9418;SDS011;4748;50.802;7.132;2022-08-01T17:43:06;0.65;;;0.65;;
9418;SDS011;4748;50.802;7.132;2022-08-01T17:45:31;0.70;;;0.70;;
9418;SDS011;4748;50.802;7.132;2022-08-01T17:47:57;1.77;;;0.88;;
9418;SDS011;4748;50.802;7.132;2022-08-01T17:50:22;1.77;;;0.75;;
9418;SDS011;4748;50.802;7.132;2022-08-01T17:52:47;0.68;;;0.68;;
9418;SDS011;4748;50.802;7.132;2022-08-01T17:55:13;0.82;;;0.80;;
9418;SDS011;4748;50.802;7.132;2022-08-01T17:57:38;0.90;;;0.90;;
9418;SDS011;4748;50.802;7.132;2022-08-01T18:00:04;1.10;;;1.10;;
9418;SDS011;4748;50.802;7.132;2022-08-01T18:02:30;1.15;;;1.10;;
9418;SDS011;4748;50.802;7.132;2022-08-01T18:04:56;1.95;;;0.90;;
9418;SDS011;4748;50.802;7.132;2022-08-01T18:07:21;1.63;;;1.33;;
9418;SDS011;4748;50.802;7.132;2022-08-01T18:09:47;1.42;;;1.30;;
9418;SDS011;4748;50.802;7.132;2022-08-01T18:12:13;1.52;;;1.42;;
9418;SDS011;4748;50.802;7.132;2022-08-01T18:14:38;3.22;;;1.50;;
9418;SDS011;4748;50.802;7.132;2022-08-01T18:17:04;1.38;;;1.38;;
9418;SDS011;4748;50.802;7.132;2022-08-01T18:19:30;3.03;;;1.40;;
9418;SDS011;4748;50.802;7.132;2022-08-01T18:21:55;1.38;;;1.38;;
9418;SDS011;4748;50.802;7.132;2022-08-01T18:24:21;1.48;;;1.48;;
9418;SDS011;4748;50.802;7.132;2022-08-01T18:26:48;1.00;;;1.00;;
9418;SDS011;4748;50.802;7.132;2022-08-01T18:29:15;1.65;;;1.65;;
9418;SDS011;4748;50.802;7.132;2022-08-01T18:31:41;1.40;;;1.30;;
9418;SDS011;4748;50.802;7.132;2022-08-01T18:34:07;1.58;;;1.17;;
9418;SDS011;4748;50.802;7.132;2022-08-01T18:36:33;1.50;;;1.33;;
9418;SDS011;4748;50.802;7.132;2022-08-01T18:38:59;2.42;;;1.45;;
9418;SDS011;4748;50.802;7.132;2022-08-01T18:41:26;1.58;;;1.13;;
9418;SDS011;4748;50.802;7.132;2022-08-01T18:43:51;1.38;;;1.38;;
9418;SDS011;4748;50.802;7.132;2022-08-01T18:46:18;1.20;;;1.10;;
9418;SDS011;4748;50.802;7.132;2022-08-01T18:48:43;1.38;;;1.38;;
9418;SDS011;4748;50.802;7.132;2022-08-01T18:51:08;1.23;;;1.23;;
9418;SDS011;4748;50.802;7.132;2022-08-01T18:53:34;1.13;;;1.13;;
9418;SDS011;4748;50.802;7.132;2022-08-01T18:56:00;1.25;;;1.25;;
9418;SDS011;4748;50.802;7.132;2022-08-01T18:58:27;2.22;;;1.23;;
9418;SDS011;4748;50.802;7.132;2022-08-01T19:00:53;1.58;;;1.48;;
9418;SDS011;4748;50.802;7.132;2022-08-01T19:03:18;1.08;;;1.08;;
9418;SDS011;4748;50.802;7.132;2022-08-01T19:05:44;1.10;;;1.00;;
9418;SDS011;4748;50.802;7.132;2022-08-01T19:08:10;0.90;;;0.90;;
9418;SDS011;4748;50.802;7.132;2022-08-01T19:10:40;2.92;;;1.10;;
9418;SDS011;4748;50.802;7.132;2022-08-01T19:13:06;3.05;;;1.02;;
9418;SDS011;4748;50.802;7.132;2022-08-01T19:15:32;1.42;;;1.33;;